sensor_id;sensor_type;location;lat;lon;timestamp;P1;durP1;ratioP1;P2;durP2;ratioP2
13368;SDS011;6753;52.520;13.450;2023-04-02T00:00:30;817.92;;;730.25;;
13368;SDS011;6753;52.520;13.450;2023-04-02T00:01:22;839.17;;;749.00;;
13368;SDS011;6753;52.520;13.450;2023-04-02T00:01:36;842.70;;;752.30;;
13368;SDS011;6753;52.520;13.450;2023-04-02T00:01:47;838.30;;;748.20;;
13368;SDS011;6753;52.520;13.450;2023-04-02T00:02:44;806.58;;;719.67;;
13368;SDS011;6753;52.520;13.450;2023-04-02T00:03:09;782.45;;;698.47;;
13368;SDS011;6753;52.520;13.450;2023-04-02T00:03:20;778.08;;;694.58;;
13368;SDS011;6753;52.520;13.450;2023-04-02T00:04:15;768.22;;;685.17;;
13368;SDS011;6753;52.520;13.450;2023-04-02T00:04:39;761.22;;;678.95;;
13368;SDS011;6753;52.520;13.450;2023-04-02T00:04:55;752.58;;;671.15;;
13368;SDS011;6753;52.520;13.450;2023-04-02T00:05:40;734.15;;;655.33;;
13368;SDS011;6753;52.520;13.450;2023-04-02T00:06:01;747.33;;;667.00;;
13368;SDS011;6753;52.520;13.450;2023-04-02T00:06:43;749.97;;;668.83;;
13368;SDS011;6753;52.520;13.450;2023-04-02T00:06:55;747.20;;;666.47;;
13368;SDS011;6753;52.520;13.450;2023-04-02T00:07:27;749.33;;;668.78;;
13368;SDS011;6753;52.520;13.450;2023-04-02T00:07:42;752.35;;;671.35;;
13368;SDS011;6753;52.520;13.450;2023-04-02T00:07:57;758.05;;;676.45;;
13368;SDS011;6753;52.520;13.450;2023-04-02T00:08:16;758.45;;;676.78;;
13368;SDS011;6753;52.520;13.450;2023-04-02T00:08:35;766.30;;;683.97;;
13368;SDS011;6753;52.520;13.450;2023-04-02T00:08:47;768.03;;;685.63;;
13368;SDS011;6753;52.520;13.450;2023-04-02T00:08:59;766.80;;;684.17;;
13368;SDS011;6753;52.520;13.450;2023-04-02T00:09:16;768.28;;;685.38;;
13368;SDS011;6753;52.520;13.450;2023-04-02T00:09:35;762.03;;;679.45;;
13368;SDS011;6753;52.520;13.450;2023-04-02T00:09:46;745.35;;;664.20;;
13368;SDS011;6753;52.520;13.450;2023-04-02T00:09:57;741.77;;;661.37;;
13368;SDS011;6753;52.520;13.450;2023-04-02T00:10:23;736.28;;;656.55;;
13368;SDS011;6753;52.520;13.450;2023-04-02T00:10:45;727.08;;;648.72;;
13368;SDS011;6753;52.520;13.450;2023-04-02T00:10:58;730.60;;;652.05;;
13368;SDS011;6753;52.520;13.450;2023-04-02T00:11:09;733.63;;;654.83;;
13368;SDS011;6753;52.520;13.450;2023-04-02T00:11:25;736.67;;;657.47;;
13368;SDS011;6753;52.520;13.450;2023-04-02T00:11:39;742.78;;;662.80;;
13368;SDS011;6753;52.520;13.450;2023-04-02T00:11:52;749.55;;;669.15;;
13368;SDS011;6753;52.520;13.450;2023-04-02T00:12:11;755.65;;;674.88;;
13368;SDS011;6753;52.520;13.450;2023-04-02T00:12:27;769.72;;;687.55;;
13368;SDS011;6753;52.520;13.450;2023-04-02T00:12:38;784.55;;;700.80;;
13368;SDS011;6753;52.520;13.450;2023-04-02T00:12:57;798.40;;;712.78;;
13368;SDS011;6753;52.520;13.450;2023-04-02T00:13:16;839.30;;;748.15;;
13368;SDS011;6753;52.520;13.450;2023-04-02T00:13:34;889.80;;;792.30;;
13368;SDS011;6753;52.520;13.450;2023-04-02T00:13:48;920.30;;;818.80;;
13368;SDS011;6753;52.520;13.450;2023-04-02T00:14:02;926.50;;;824.05;;
13368;SDS011;6753;52.520;13.450;2023-04-02T00:14:14;921.90;;;820.20;;
13368;SDS011;6753;52.520;13.450;2023-04-02T00:14:31;922.00;;;820.22;;
13368;SDS011;6753;52.520;13.450;2023-04-02T00:14:47;919.47;;;818.20;;
13368;SDS011;6753;52.520;13.450;2023-04-02T00:15:00;923.53;;;821.72;;
13368;SDS011;6753;52.520;13.450;2023-04-02T00:15:12;930.83;;;827.90;;
13368;SDS011;6753;52.520;13.450;2023-04-02T00:15:23;925.38;;;823.17;;
13368;SDS011;6753;52.520;13.450;2023-04-02T00:15:34;919.20;;;817.95;;
13368;SDS011;6753;52.520;13.450;2023-04-02T00:15:50;904.35;;;805.00;;
13368;SDS011;6753;52.520;13.450;2023-04-02T00:16:06;892.60;;;795.38;;
13368;SDS011;6753;52.520;13.450;2023-04-02T00:16:28;877.58;;;782.65;;
13368;SDS011;6753;52.520;13.450;2023-04-02T00:16:39;870.67;;;776.65;;
13368;SDS011;6753;52.520;13.450;2023-04-02T00:16:51;866.70;;;773.10;;
13368;SDS011;6753;52.520;13.450;2023-04-02T00:17:04;858.40;;;765.85;;
13368;SDS011;6753;52.520;13.450;2023-04-02T00:17:15;852.22;;;760.58;;
13368;SDS011;6753;52.520;13.450;2023-04-02T00:17:26;846.20;;;755.40;;
13368;SDS011;6753;52.520;13.450;2023-04-02T00:17:36;839.03;;;749.00;;
13368;SDS011;6753;52.520;13.450;2023-04-02T00:17:47;833.85;;;744.50;;
13368;SDS011;6753;52.520;13.450;2023-04-02T00:17:58;829.47;;;740.73;;
13368;SDS011;6753;52.520;13.450;2023-04-02T00:18:13;822.93;;;735.10;;
13368;SDS011;6753;52.520;13.450;2023-04-02T00:18:25;816.53;;;729.35;;
13368;SDS011;6753;52.520;13.450;2023-04-02T00:18:39;811.80;;;725.33;;
13368;SDS011;6753;52.520;13.450;2023-04-02T00:18:54;804.67;;;718.92;;
13368;SDS011;6753;52.520;13.450;2023-04-02T00:19:12;795.28;;;710.38;;
13368;SDS011;6753;52.520;13.450;2023-04-02T00:19:28;788.00;;;703.80;;
13368;SDS011;6753;52.520;13.450;2023-04-02T00:19:44;782.80;;;699.08;;
13368;SDS011;6753;52.520;13.450;2023-04-02T00:19:59;781.72;;;697.95;;
13368;SDS011;6753;52.520;13.450;2023-04-02T00:20:15;784.53;;;700.72;;
13368;SDS011;6753;52.520;13.450;2023-04-02T00:20:29;785.72;;;701.92;;
13368;SDS011;6753;52.520;13.450;2023-04-02T00:20:46;785.92;;;702.33;;
13368;SDS011;6753;52.520;13.450;2023-04-02T00:21:05;783.95;;;700.55;;
13368;SDS011;6753;52.520;13.450;2023-04-02T00:21:21;782.60;;;699.22;;
13368;SDS011;6753;52.520;13.450;2023-04-02T00:21:34;781.15;;;697.75;;
13368;SDS011;6753;52.520;13.450;2023-04-02T00:21:50;780.72;;;697.38;;
13368;SDS011;6753;52.520;13.450;2023-04-02T00:22:03;779.00;;;696.05;;
13368;SDS011;6753;52.520;13.450;2023-04-02T00:22:17;776.88;;;694.15;;
13368;SDS011;6753;52.520;13.450;2023-04-02T00:22:31;775.08;;;692.75;;
13368;SDS011;6753;52.520;13.450;2023-04-02T00:22:43;772.72;;;690.60;;
13368;SDS011;6753;52.520;13.450;2023-04-02T00:22:54;770.78;;;688.92;;
13368;SDS011;6753;52.520;13.450;2023-04-02T00:23:08;769.90;;;688.00;;
13368;SDS011;6753;52.520;13.450;2023-04-02T00:23:20;767.22;;;685.60;;
13368;SDS011;6753;52.520;13.450;2023-04-02T00:23:34;766.35;;;684.60;;
13368;SDS011;6753;52.520;13.450;2023-04-02T00:23:45;762.67;;;681.55;;
13368;SDS011;6753;52.520;13.450;2023-04-02T00:23:58;764.83;;;683.45;;
13368;SDS011;6753;52.520;13.450;2023-04-02T00:24:13;768.72;;;686.92;;
13368;SDS011;6753;52.520;13.450;2023-04-02T00:24:25;773.88;;;691.67;;
13368;SDS011;6753;52.520;13.450;2023-04-02T00:24:37;775.83;;;693.47;;
13368;SDS011;6753;52.520;13.450;2023-04-02T00:24:49;781.97;;;698.88;;
13368;SDS011;6753;52.520;13.450;2023-04-02T00:25:06;784.55;;;701.45;;
13368;SDS011;6753;52.520;13.450;2023-04-02T00:25:22;781.28;;;698.70;;
13368;SDS011;6753;52.520;13.450;2023-04-02T00:25:37;782.10;;;699.58;;
13368;SDS011;6753;52.520;13.450;2023-04-02T00:25:52;779.97;;;697.70;;
13368;SDS011;6753;52.520;13.450;2023-04-02T00:26:04;777.25;;;695.05;;
13368;SDS011;6753;52.520;13.450;2023-04-02T00:26:19;776.53;;;694.63;;
13368;SDS011;6753;52.520;13.450;2023-04-02T00:26:34;776.10;;;694.35;;
13368;SDS011;6753;52.520;13.450;2023-04-02T00:26:47;773.95;;;692.15;;
13368;SDS011;6753;52.520;13.450;2023-04-02T00:26:58;772.38;;;690.72;;
13368;SDS011;6753;52.520;13.450;2023-04-02T00:27:10;772.17;;;690.50;;
13368;SDS011;6753;52.520;13.450;2023-04-02T00:27:21;771.33;;;689.47;;
13368;SDS011;6753;52.520;13.450;2023-04-02T00:27:32;768.58;;;686.78;;
13368;SDS011;6753;52.520;13.450;2023-04-02T00:27:45;763.78;;;682.63;;
13368;SDS011;6753;52.520;13.450;2023-04-02T00:27:55;759.97;;;679.17;;
13368;SDS011;6753;52.520;13.450;2023-04-02T00:28:08;755.50;;;675.10;;
13368;SDS011;6753;52.520;13.450;2023-04-02T00:28:21;750.45;;;670.58;;
13368;SDS011;6753;52.520;13.450;2023-04-02T00:28:33;748.08;;;668.55;;
13368;SDS011;6753;52.520;13.450;2023-04-02T00:28:44;748.75;;;669.15;;
13368;SDS011;6753;52.520;13.450;2023-04-02T00:28:55;751.53;;;671.65;;
13368;SDS011;6753;52.520;13.450;2023-04-02T00:29:06;752.45;;;672.30;;
13368;SDS011;6753;52.520;13.450;2023-04-02T00:29:19;751.83;;;671.67;;
13368;SDS011;6753;52.520;13.450;2023-04-02T00:29:31;753.75;;;673.40;;
13368;SDS011;6753;52.520;13.450;2023-04-02T00:29:46;754.47;;;673.88;;
13368;SDS011;6753;52.520;13.450;2023-04-02T00:29:57;753.00;;;672.92;;
13368;SDS011;6753;52.520;13.450;2023-04-02T00:30:09;753.63;;;673.80;;
13368;SDS011;6753;52.520;13.450;2023-04-02T00:30:22;754.05;;;674.08;;
13368;SDS011;6753;52.520;13.450;2023-04-02T00:30:32;751.47;;;671.92;;
13368;SDS011;6753;52.520;13.450;2023-04-02T00:30:46;750.35;;;671.10;;
13368;SDS011;6753;52.520;13.450;2023-04-02T00:30:58;752.03;;;672.75;;
13368;SDS011;6753;52.520;13.450;2023-04-02T00:31:10;749.88;;;670.58;;
13368;SDS011;6753;52.520;13.450;2023-04-02T00:31:21;748.42;;;669.33;;
13368;SDS011;6753;52.520;13.450;2023-04-02T00:31:34;748.90;;;669.67;;
13368;SDS011;6753;52.520;13.450;2023-04-02T00:31:50;747.05;;;667.95;;
13368;SDS011;6753;52.520;13.450;2023-04-02T00:32:01;745.53;;;666.38;;
13368;SDS011;6753;52.520;13.450;2023-04-02T00:32:16;746.95;;;667.80;;
13368;SDS011;6753;52.520;13.450;2023-04-02T00:32:31;748.10;;;668.85;;
13368;SDS011;6753;52.520;13.450;2023-04-02T00:32:44;750.78;;;671.30;;
13368;SDS011;6753;52.520;13.450;2023-04-02T00:32:55;749.15;;;669.70;;
13368;SDS011;6753;52.520;13.450;2023-04-02T00:33:11;750.80;;;671.20;;
13368;SDS011;6753;52.520;13.450;2023-04-02T00:33:26;753.78;;;673.85;;
13368;SDS011;6753;52.520;13.450;2023-04-02T00:33:41;755.03;;;675.05;;
13368;SDS011;6753;52.520;13.450;2023-04-02T00:33:52;754.10;;;674.38;;
13368;SDS011;6753;52.520;13.450;2023-04-02T00:34:03;754.60;;;674.85;;
13368;SDS011;6753;52.520;13.450;2023-04-02T00:34:19;749.58;;;670.28;;
13368;SDS011;6753;52.520;13.450;2023-04-02T00:34:33;747.65;;;668.55;;
13368;SDS011;6753;52.520;13.450;2023-04-02T00:34:46;745.35;;;666.28;;
13368;SDS011;6753;52.520;13.450;2023-04-02T00:34:57;744.50;;;665.45;;
13368;SDS011;6753;52.520;13.450;2023-04-02T00:35:09;743.47;;;664.63;;
13368;SDS011;6753;52.520;13.450;2023-04-02T00:35:24;741.63;;;663.17;;
13368;SDS011;6753;52.520;13.450;2023-04-02T00:35:37;737.95;;;659.80;;
13368;SDS011;6753;52.520;13.450;2023-04-02T00:35:48;738.78;;;660.25;;
13368;SDS011;6753;52.520;13.450;2023-04-02T00:36:01;738.10;;;659.90;;
13368;SDS011;6753;52.520;13.450;2023-04-02T00:36:17;737.70;;;659.30;;
13368;SDS011;6753;52.520;13.450;2023-04-02T00:36:29;739.00;;;660.35;;
13368;SDS011;6753;52.520;13.450;2023-04-02T00:36:43;739.88;;;661.28;;
13368;SDS011;6753;52.520;13.450;2023-04-02T00:36:55;739.90;;;661.53;;
13368;SDS011;6753;52.520;13.450;2023-04-02T00:37:09;741.70;;;663.20;;
13368;SDS011;6753;52.520;13.450;2023-04-02T00:37:32;740.90;;;662.38;;
13368;SDS011;6753;52.520;13.450;2023-04-02T00:37:47;740.95;;;662.55;;
13368;SDS011;6753;52.520;13.450;2023-04-02T00:37:59;740.97;;;662.60;;
13368;SDS011;6753;52.520;13.450;2023-04-02T00:38:14;740.72;;;662.35;;
13368;SDS011;6753;52.520;13.450;2023-04-02T00:38:30;739.38;;;661.33;;
13368;SDS011;6753;52.520;13.450;2023-04-02T00:38:42;738.63;;;660.72;;
13368;SDS011;6753;52.520;13.450;2023-04-02T00:38:55;737.15;;;659.47;;
13368;SDS011;6753;52.520;13.450;2023-04-02T00:39:09;737.28;;;659.50;;
13368;SDS011;6753;52.520;13.450;2023-04-02T00:39:26;738.35;;;660.53;;
13368;SDS011;6753;52.520;13.450;2023-04-02T00:39:39;739.63;;;661.72;;
13368;SDS011;6753;52.520;13.450;2023-04-02T00:39:50;741.45;;;663.17;;
13368;SDS011;6753;52.520;13.450;2023-04-02T00:40:08;742.30;;;664.10;;
13368;SDS011;6753;52.520;13.450;2023-04-02T00:40:29;741.80;;;663.60;;
13368;SDS011;6753;52.520;13.450;2023-04-02T00:40:41;737.95;;;659.90;;
13368;SDS011;6753;52.520;13.450;2023-04-02T00:40:53;736.00;;;658.20;;
13368;SDS011;6753;52.520;13.450;2023-04-02T00:41:06;732.95;;;655.35;;
13368;SDS011;6753;52.520;13.450;2023-04-02T00:41:18;730.60;;;653.40;;
13368;SDS011;6753;52.520;13.450;2023-04-02T00:41:33;730.80;;;653.65;;
13368;SDS011;6753;52.520;13.450;2023-04-02T00:41:48;730.38;;;653.28;;
13368;SDS011;6753;52.520;13.450;2023-04-02T00:42:14;726.40;;;649.85;;
13368;SDS011;6753;52.520;13.450;2023-04-02T00:42:27;726.20;;;649.53;;
13368;SDS011;6753;52.520;13.450;2023-04-02T00:42:40;722.97;;;646.55;;
13368;SDS011;6753;52.520;13.450;2023-04-02T00:42:51;722.25;;;645.95;;
13368;SDS011;6753;52.520;13.450;2023-04-02T00:43:04;721.72;;;645.13;;
13368;SDS011;6753;52.520;13.450;2023-04-02T00:43:17;722.08;;;645.38;;
13368;SDS011;6753;52.520;13.450;2023-04-02T00:43:30;718.78;;;642.55;;
13368;SDS011;6753;52.520;13.450;2023-04-02T00:43:45;717.63;;;641.40;;
13368;SDS011;6753;52.520;13.450;2023-04-02T00:43:59;716.80;;;640.78;;
13368;SDS011;6753;52.520;13.450;2023-04-02T00:44:11;716.20;;;640.45;;
13368;SDS011;6753;52.520;13.450;2023-04-02T00:44:23;716.58;;;640.70;;
13368;SDS011;6753;52.520;13.450;2023-04-02T00:44:42;714.33;;;638.72;;
13368;SDS011;6753;52.520;13.450;2023-04-02T00:44:54;713.78;;;638.28;;
13368;SDS011;6753;52.520;13.450;2023-04-02T00:45:09;713.58;;;637.90;;
13368;SDS011;6753;52.520;13.450;2023-04-02T00:45:29;714.33;;;638.53;;
13368;SDS011;6753;52.520;13.450;2023-04-02T00:45:42;715.65;;;639.65;;
13368;SDS011;6753;52.520;13.450;2023-04-02T00:46:00;716.50;;;640.40;;
13368;SDS011;6753;52.520;13.450;2023-04-02T00:46:13;716.03;;;640.10;;
13368;SDS011;6753;52.520;13.450;2023-04-02T00:46:28;721.08;;;644.58;;
13368;SDS011;6753;52.520;13.450;2023-04-02T00:46:41;724.08;;;647.38;;
13368;SDS011;6753;52.520;13.450;2023-04-02T00:46:58;724.92;;;648.03;;
13368;SDS011;6753;52.520;13.450;2023-04-02T00:47:18;724.15;;;647.63;;
13368;SDS011;6753;52.520;13.450;2023-04-02T00:47:31;721.38;;;645.08;;
13368;SDS011;6753;52.520;13.450;2023-04-02T00:47:44;718.67;;;642.67;;
13368;SDS011;6753;52.520;13.450;2023-04-02T00:47:55;718.47;;;642.72;;
13368;SDS011;6753;52.520;13.450;2023-04-02T00:48:15;717.85;;;642.15;;
13368;SDS011;6753;52.520;13.450;2023-04-02T00:48:38;711.95;;;636.85;;
13368;SDS011;6753;52.520;13.450;2023-04-02T00:48:55;709.38;;;634.30;;
13368;SDS011;6753;52.520;13.450;2023-04-02T00:49:11;708.50;;;633.47;;
13368;SDS011;6753;52.520;13.450;2023-04-02T00:49:29;705.65;;;631.10;;
13368;SDS011;6753;52.520;13.450;2023-04-02T00:49:45;702.42;;;628.03;;
13368;SDS011;6753;52.520;13.450;2023-04-02T00:50:00;700.42;;;626.25;;
13368;SDS011;6753;52.520;13.450;2023-04-02T00:50:18;698.75;;;624.70;;
13368;SDS011;6753;52.520;13.450;2023-04-02T00:50:34;699.22;;;624.85;;
13368;SDS011;6753;52.520;13.450;2023-04-02T00:50:49;699.58;;;625.25;;
13368;SDS011;6753;52.520;13.450;2023-04-02T00:51:07;701.72;;;627.10;;
13368;SDS011;6753;52.520;13.450;2023-04-02T00:51:22;701.60;;;626.75;;
13368;SDS011;6753;52.520;13.450;2023-04-02T00:51:37;706.50;;;631.15;;
13368;SDS011;6753;52.520;13.450;2023-04-02T00:51:55;709.35;;;633.85;;
13368;SDS011;6753;52.520;13.450;2023-04-02T00:52:08;711.00;;;635.13;;
13368;SDS011;6753;52.520;13.450;2023-04-02T00:52:22;724.60;;;647.85;;
13368;SDS011;6753;52.520;13.450;2023-04-02T00:52:35;733.47;;;655.85;;
13368;SDS011;6753;52.520;13.450;2023-04-02T00:52:49;743.88;;;665.10;;
13368;SDS011;6753;52.520;13.450;2023-04-02T00:53:03;754.10;;;674.33;;
13368;SDS011;6753;52.520;13.450;2023-04-02T00:53:21;756.20;;;675.97;;
13368;SDS011;6753;52.520;13.450;2023-04-02T00:53:34;760.28;;;679.42;;
13368;SDS011;6753;52.520;13.450;2023-04-02T00:53:46;761.45;;;680.50;;
13368;SDS011;6753;52.520;13.450;2023-04-02T00:53:59;767.00;;;685.20;;
13368;SDS011;6753;52.520;13.450;2023-04-02T00:54:12;770.28;;;688.30;;
13368;SDS011;6753;52.520;13.450;2023-04-02T00:54:25;776.03;;;693.38;;
13368;SDS011;6753;52.520;13.450;2023-04-02T00:54:42;783.55;;;699.65;;
13368;SDS011;6753;52.520;13.450;2023-04-02T00:54:58;786.58;;;702.15;;
13368;SDS011;6753;52.520;13.450;2023-04-02T00:55:14;784.90;;;700.22;;
13368;SDS011;6753;52.520;13.450;2023-04-02T00:55:29;773.53;;;690.38;;
13368;SDS011;6753;52.520;13.450;2023-04-02T00:55:44;755.58;;;674.25;;
13368;SDS011;6753;52.520;13.450;2023-04-02T00:55:56;742.42;;;662.90;;
13368;SDS011;6753;52.520;13.450;2023-04-02T00:56:11;744.75;;;665.08;;
13368;SDS011;6753;52.520;13.450;2023-04-02T00:56:27;756.70;;;675.38;;
13368;SDS011;6753;52.520;13.450;2023-04-02T00:56:41;776.47;;;692.97;;
13368;SDS011;6753;52.520;13.450;2023-04-02T00:56:54;795.13;;;709.42;;
13368;SDS011;6753;52.520;13.450;2023-04-02T00:57:09;805.38;;;718.35;;
13368;SDS011;6753;52.520;13.450;2023-04-02T00:57:25;803.70;;;717.00;;
13368;SDS011;6753;52.520;13.450;2023-04-02T00:57:37;799.78;;;713.67;;
13368;SDS011;6753;52.520;13.450;2023-04-02T00:57:51;791.92;;;706.65;;
13368;SDS011;6753;52.520;13.450;2023-04-02T00:58:04;789.20;;;704.40;;
13368;SDS011;6753;52.520;13.450;2023-04-02T00:58:26;787.25;;;702.70;;
13368;SDS011;6753;52.520;13.450;2023-04-02T00:58:38;787.60;;;702.88;;
13368;SDS011;6753;52.520;13.450;2023-04-02T00:58:50;787.40;;;702.67;;
13368;SDS011;6753;52.520;13.450;2023-04-02T00:59:02;787.10;;;702.22;;
13368;SDS011;6753;52.520;13.450;2023-04-02T00:59:19;788.08;;;703.08;;
13368;SDS011;6753;52.520;13.450;2023-04-02T00:59:35;791.50;;;706.10;;
13368;SDS011;6753;52.520;13.450;2023-04-02T00:59:58;796.20;;;710.50;;
13368;SDS011;6753;52.520;13.450;2023-04-02T01:00:18;802.03;;;715.70;;
13368;SDS011;6753;52.520;13.450;2023-04-02T01:00:31;806.03;;;719.22;;
13368;SDS011;6753;52.520;13.450;2023-04-02T01:00:47;807.25;;;720.15;;
13368;SDS011;6753;52.520;13.450;2023-04-02T01:00:59;803.15;;;716.25;;
13368;SDS011;6753;52.520;13.450;2023-04-02T01:01:14;797.65;;;711.50;;
13368;SDS011;6753;52.520;13.450;2023-04-02T01:01:27;790.17;;;704.90;;
13368;SDS011;6753;52.520;13.450;2023-04-02T01:01:44;781.50;;;697.53;;
13368;SDS011;6753;52.520;13.450;2023-04-02T01:02:35;752.83;;;672.35;;
13368;SDS011;6753;52.520;13.450;2023-04-02T01:03:51;743.72;;;664.15;;
13368;SDS011;6753;52.520;13.450;2023-04-02T01:04:15;751.22;;;671.05;;
13368;SDS011;6753;52.520;13.450;2023-04-02T01:04:38;758.67;;;678.45;;
13368;SDS011;6753;52.520;13.450;2023-04-02T01:04:51;758.20;;;678.03;;
13368;SDS011;6753;52.520;13.450;2023-04-02T01:05:03;757.13;;;677.03;;
13368;SDS011;6753;52.520;13.450;2023-04-02T01:05:31;764.58;;;683.28;;
13368;SDS011;6753;52.520;13.450;2023-04-02T01:05:44;767.33;;;685.75;;
13368;SDS011;6753;52.520;13.450;2023-04-02T01:05:58;772.42;;;690.22;;
13368;SDS011;6753;52.520;13.450;2023-04-02T01:06:12;777.58;;;694.70;;
13368;SDS011;6753;52.520;13.450;2023-04-02T01:06:27;786.70;;;702.85;;
13368;SDS011;6753;52.520;13.450;2023-04-02T01:06:40;793.30;;;708.72;;
13368;SDS011;6753;52.520;13.450;2023-04-02T01:06:52;795.30;;;710.45;;
13368;SDS011;6753;52.520;13.450;2023-04-02T01:07:04;797.13;;;712.15;;
13368;SDS011;6753;52.520;13.450;2023-04-02T01:07:18;792.22;;;707.95;;
13368;SDS011;6753;52.520;13.450;2023-04-02T01:07:41;790.00;;;706.10;;
13368;SDS011;6753;52.520;13.450;2023-04-02T01:08:03;784.90;;;701.45;;
13368;SDS011;6753;52.520;13.450;2023-04-02T01:08:19;780.70;;;697.53;;
13368;SDS011;6753;52.520;13.450;2023-04-02T01:08:51;778.83;;;695.25;;
13368;SDS011;6753;52.520;13.450;2023-04-02T01:09:12;775.65;;;692.55;;
13368;SDS011;6753;52.520;13.450;2023-04-02T01:09:49;771.65;;;689.22;;
13368;SDS011;6753;52.520;13.450;2023-04-02T01:10:16;761.75;;;679.85;;
13368;SDS011;6753;52.520;13.450;2023-04-02T01:10:46;756.83;;;675.70;;
13368;SDS011;6753;52.520;13.450;2023-04-02T01:11:09;755.70;;;675.25;;
13368;SDS011;6753;52.520;13.450;2023-04-02T01:11:36;758.17;;;677.65;;
13368;SDS011;6753;52.520;13.450;2023-04-02T01:12:15;762.92;;;681.97;;
13368;SDS011;6753;52.520;13.450;2023-04-02T01:12:47;762.30;;;681.30;;
13368;SDS011;6753;52.520;13.450;2023-04-02T01:13:09;761.90;;;680.90;;
13368;SDS011;6753;52.520;13.450;2023-04-02T01:13:29;763.72;;;682.67;;
13368;SDS011;6753;52.520;13.450;2023-04-02T01:13:48;760.03;;;679.15;;
13368;SDS011;6753;52.520;13.450;2023-04-02T01:14:08;757.38;;;676.58;;
13368;SDS011;6753;52.520;13.450;2023-04-02T01:14:29;758.88;;;677.83;;
13368;SDS011;6753;52.520;13.450;2023-04-02T01:14:51;764.28;;;682.75;;
13368;SDS011;6753;52.520;13.450;2023-04-02T01:15:11;764.55;;;683.13;;
13368;SDS011;6753;52.520;13.450;2023-04-02T01:15:27;777.42;;;694.83;;
13368;SDS011;6753;52.520;13.450;2023-04-02T01:15:43;784.13;;;700.97;;
13368;SDS011;6753;52.520;13.450;2023-04-02T01:16:03;799.53;;;714.75;;
13368;SDS011;6753;52.520;13.450;2023-04-02T01:16:21;797.10;;;712.67;;
13368;SDS011;6753;52.520;13.450;2023-04-02T01:16:47;787.90;;;703.90;;
13368;SDS011;6753;52.520;13.450;2023-04-02T01:17:07;790.05;;;705.55;;
13368;SDS011;6753;52.520;13.450;2023-04-02T01:17:32;788.63;;;704.40;;
13368;SDS011;6753;52.520;13.450;2023-04-02T01:17:59;793.60;;;709.38;;
13368;SDS011;6753;52.520;13.450;2023-04-02T01:18:25;794.13;;;709.65;;
13368;SDS011;6753;52.520;13.450;2023-04-02T01:18:48;796.40;;;711.60;;
13368;SDS011;6753;52.520;13.450;2023-04-02T01:19:07;794.13;;;709.65;;
13368;SDS011;6753;52.520;13.450;2023-04-02T01:19:39;789.70;;;705.55;;
13368;SDS011;6753;52.520;13.450;2023-04-02T01:21:43;778.13;;;695.60;;
13368;SDS011;6753;52.520;13.450;2023-04-02T01:22:03;786.72;;;703.03;;
13368;SDS011;6753;52.520;13.450;2023-04-02T01:22:19;789.75;;;705.65;;
13368;SDS011;6753;52.520;13.450;2023-04-02T01:22:40;790.72;;;706.63;;
13368;SDS011;6753;52.520;13.450;2023-04-02T01:22:59;795.47;;;710.95;;
13368;SDS011;6753;52.520;13.450;2023-04-02T01:23:17;804.97;;;719.50;;
13368;SDS011;6753;52.520;13.450;2023-04-02T01:23:33;810.70;;;724.90;;
13368;SDS011;6753;52.520;13.450;2023-04-02T01:23:55;813.88;;;727.78;;
13368;SDS011;6753;52.520;13.450;2023-04-02T01:24:11;814.50;;;728.22;;
13368;SDS011;6753;52.520;13.450;2023-04-02T01:24:23;814.22;;;727.88;;
13368;SDS011;6753;52.520;13.450;2023-04-02T01:24:39;816.55;;;729.75;;
13368;SDS011;6753;52.520;13.450;2023-04-02T01:24:54;821.70;;;734.22;;
13368;SDS011;6753;52.520;13.450;2023-04-02T01:25:07;825.63;;;737.75;;
13368;SDS011;6753;52.520;13.450;2023-04-02T01:25:23;814.03;;;727.60;;
13368;SDS011;6753;52.520;13.450;2023-04-02T01:25:42;803.67;;;718.22;;
13368;SDS011;6753;52.520;13.450;2023-04-02T01:25:58;792.20;;;707.88;;
13368;SDS011;6753;52.520;13.450;2023-04-02T01:26:17;794.10;;;709.55;;
13368;SDS011;6753;52.520;13.450;2023-04-02T01:26:42;808.63;;;722.63;;
13368;SDS011;6753;52.520;13.450;2023-04-02T01:26:59;802.80;;;717.33;;
13368;SDS011;6753;52.520;13.450;2023-04-02T01:27:13;797.53;;;712.67;;
13368;SDS011;6753;52.520;13.450;2023-04-02T01:27:28;791.47;;;707.30;;
13368;SDS011;6753;52.520;13.450;2023-04-02T01:27:46;793.90;;;709.25;;
13368;SDS011;6753;52.520;13.450;2023-04-02T01:28:04;801.90;;;716.88;;
13368;SDS011;6753;52.520;13.450;2023-04-02T01:28:21;807.35;;;721.65;;
13368;SDS011;6753;52.520;13.450;2023-04-02T01:28:46;805.15;;;719.80;;
13368;SDS011;6753;52.520;13.450;2023-04-02T01:29:08;791.45;;;707.65;;
13368;SDS011;6753;52.520;13.450;2023-04-02T01:29:21;787.83;;;704.25;;
13368;SDS011;6753;52.520;13.450;2023-04-02T01:29:36;785.17;;;701.83;;
13368;SDS011;6753;52.520;13.450;2023-04-02T01:29:50;785.15;;;701.40;;
13368;SDS011;6753;52.520;13.450;2023-04-02T01:30:05;787.05;;;703.25;;
13368;SDS011;6753;52.520;13.450;2023-04-02T01:30:20;789.60;;;705.60;;
13368;SDS011;6753;52.520;13.450;2023-04-02T01:30:33;789.22;;;705.28;;
13368;SDS011;6753;52.520;13.450;2023-04-02T01:30:45;788.90;;;705.13;;
13368;SDS011;6753;52.520;13.450;2023-04-02T01:31:00;795.47;;;711.13;;
13368;SDS011;6753;52.520;13.450;2023-04-02T01:31:12;795.47;;;711.05;;
13368;SDS011;6753;52.520;13.450;2023-04-02T01:31:25;793.17;;;709.08;;
13368;SDS011;6753;52.520;13.450;2023-04-02T01:31:37;792.10;;;708.17;;
13368;SDS011;6753;52.520;13.450;2023-04-02T01:31:48;791.13;;;707.33;;
13368;SDS011;6753;52.520;13.450;2023-04-02T01:32:03;786.90;;;703.40;;
13368;SDS011;6753;52.520;13.450;2023-04-02T01:32:17;788.67;;;704.83;;
13368;SDS011;6753;52.520;13.450;2023-04-02T01:32:30;790.72;;;706.53;;
13368;SDS011;6753;52.520;13.450;2023-04-02T01:32:42;794.00;;;709.40;;
13368;SDS011;6753;52.520;13.450;2023-04-02T01:32:54;795.30;;;710.38;;
13368;SDS011;6753;52.520;13.450;2023-04-02T01:33:05;794.97;;;710.13;;
13368;SDS011;6753;52.520;13.450;2023-04-02T01:33:17;791.03;;;706.58;;
13368;SDS011;6753;52.520;13.450;2023-04-02T01:33:31;786.00;;;702.10;;
13368;SDS011;6753;52.520;13.450;2023-04-02T01:33:43;777.90;;;694.85;;
13368;SDS011;6753;52.520;13.450;2023-04-02T01:33:54;777.08;;;694.28;;
13368;SDS011;6753;52.520;13.450;2023-04-02T01:34:07;778.20;;;695.30;;
13368;SDS011;6753;52.520;13.450;2023-04-02T01:34:21;785.30;;;701.78;;
13368;SDS011;6753;52.520;13.450;2023-04-02T01:34:34;792.53;;;708.33;;
13368;SDS011;6753;52.520;13.450;2023-04-02T01:34:45;800.25;;;715.03;;
13368;SDS011;6753;52.520;13.450;2023-04-02T01:34:58;802.22;;;716.85;;